TFM - Tactical Decision Aid (Experimental) INFO Settings
ID: Runway Winds: CIG/VIS Threshold: METAR Board: Map:

Kclt - Charlotte-Douglas Intl

Updated at: 1101 UTC 25 May 2016
Latest TAF at: 0857 UTC 25 May 2016

TAF Board

Time1052Z25/12Z25/13Z25/14Z25/15Z25/16Z25/17Z25/18Z25/19Z25/20Z25/21Z25/22Z25/23Z26/00Z
TypeOBSPRVLPRVLPRVLPRVLPRVLPRVLPRVLPRVLPRVLPRVLPRVLPRVLPRVL
VIS10>6>6>6>6>6>6>6>6>6>6>6>6>6
CIG------------250250250250250250250120
CoverFEWSCTSCTSCTSCTSCTBKNBKNBKNBKNBKNBKNBKNBKN
FltCatVFRVFRVFRVFRVFRVFRVFRVFRVFRVFRVFRVFRVFRVFR
WX----------------------------
WDirVRB190190190190190230230230230230230230190
WSpd03333366666663
WGst----------------------------
TAF
KCLT 250857Z 2509/2606 19003KT P6SM SCT080
  FM251700 23006KT P6SM SCT060 BKN250
  FM260000 19003KT P6SM SCT060 BKN120


METAR
KCLT 251052Z 00000KT 10SM FEW250 16/13 A3022 RMK AO2 SLP226 T01610128
KCLT 250952Z 00000KT 10SM FEW080 15/12 A3019 RMK AO2 SLP217 T01500122

TAF/METAR Board Legend

Potential Impact
  None Marginal Slight Moderate High
Visibility (sm) > ≤X≤ <
Ceiling (100 ft) > ≤X≤ <
Wind Speed (kt) <10 10≤X<20 20≤X<30 ≥30
Wind Gust (kt) <15 15≤X<25 25≤X<35 ≥35
Weather No Wx Reported VCTS -TS,-FZRA TS,FZRA +TS,+FZRA